sensor_id;sensor_type;location;lat;lon;timestamp;P1;durP1;ratioP1;P2;durP2;ratioP2
14736;SDS011;7459;53.590;10.062;2022-10-16T00:01:19;7.82;;;3.38;;
14736;SDS011;7459;53.590;10.062;2022-10-16T00:03:48;7.10;;;3.83;;
14736;SDS011;7459;53.590;10.062;2022-10-16T00:06:15;9.80;;;3.95;;
14736;SDS011;7459;53.590;10.062;2022-10-16T00:08:44;8.93;;;3.90;;
14736;SDS011;7459;53.590;10.062;2022-10-16T00:11:11;9.13;;;3.38;;
14736;SDS011;7459;53.590;10.062;2022-10-16T00:13:43;9.65;;;3.25;;
14736;SDS011;7459;53.590;10.062;2022-10-16T00:16:11;7.55;;;2.95;;
14736;SDS011;7459;53.590;10.062;2022-10-16T00:18:39;7.60;;;2.97;;
14736;SDS011;7459;53.590;10.062;2022-10-16T00:21:12;6.87;;;3.17;;
14736;SDS011;7459;53.590;10.062;2022-10-16T00:23:42;6.63;;;2.60;;
14736;SDS011;7459;53.590;10.062;2022-10-16T00:26:09;9.18;;;2.60;;
14736;SDS011;7459;53.590;10.062;2022-10-16T00:28:38;6.82;;;2.13;;
14736;SDS011;7459;53.590;10.062;2022-10-16T00:31:05;6.30;;;2.50;;
14736;SDS011;7459;53.590;10.062;2022-10-16T00:33:34;5.38;;;2.08;;
14736;SDS011;7459;53.590;10.062;2022-10-16T00:36:02;7.82;;;2.08;;
14736;SDS011;7459;53.590;10.062;2022-10-16T00:38:29;5.50;;;1.80;;
14736;SDS011;7459;53.590;10.062;2022-10-16T00:40:55;6.47;;;1.80;;
14736;SDS011;7459;53.590;10.062;2022-10-16T00:43:41;7.07;;;1.50;;
14736;SDS011;7459;53.590;10.062;2022-10-16T00:46:13;6.07;;;1.40;;
14736;SDS011;7459;53.590;10.062;2022-10-16T00:48:54;3.97;;;1.48;;
14736;SDS011;7459;53.590;10.062;2022-10-16T00:51:33;3.97;;;1.45;;
14736;SDS011;7459;53.590;10.062;2022-10-16T00:54:04;5.20;;;1.05;;
14736;SDS011;7459;53.590;10.062;2022-10-16T00:56:36;6.87;;;1.70;;
14736;SDS011;7459;53.590;10.062;2022-10-16T00:59:06;4.13;;;1.25;;
14736;SDS011;7459;53.590;10.062;2022-10-16T01:01:40;4.88;;;1.73;;
14736;SDS011;7459;53.590;10.062;2022-10-16T01:04:06;4.30;;;1.13;;
14736;SDS011;7459;53.590;10.062;2022-10-16T01:06:35;5.45;;;1.02;;
14736;SDS011;7459;53.590;10.062;2022-10-16T01:09:17;7.28;;;1.00;;
14736;SDS011;7459;53.590;10.062;2022-10-16T01:12:11;3.23;;;0.67;;
14736;SDS011;7459;53.590;10.062;2022-10-16T01:14:56;4.50;;;1.02;;
14736;SDS011;7459;53.590;10.062;2022-10-16T01:17:30;5.80;;;1.00;;
14736;SDS011;7459;53.590;10.062;2022-10-16T01:25:53;3.93;;;0.80;;
14736;SDS011;7459;53.590;10.062;2022-10-16T01:31:47;3.15;;;0.93;;
14736;SDS011;7459;53.590;10.062;2022-10-16T01:34:21;3.13;;;1.00;;
14736;SDS011;7459;53.590;10.062;2022-10-16T01:36:57;6.85;;;1.17;;
14736;SDS011;7459;53.590;10.062;2022-10-16T01:39:40;5.80;;;1.17;;
14736;SDS011;7459;53.590;10.062;2022-10-16T01:42:12;4.32;;;0.90;;
14736;SDS011;7459;53.590;10.062;2022-10-16T01:44:45;3.00;;;0.95;;
14736;SDS011;7459;53.590;10.062;2022-10-16T01:47:12;5.07;;;0.88;;
14736;SDS011;7459;53.590;10.062;2022-10-16T01:49:39;5.32;;;0.73;;
14736;SDS011;7459;53.590;10.062;2022-10-16T01:52:07;5.70;;;1.00;;
14736;SDS011;7459;53.590;10.062;2022-10-16T01:54:40;5.22;;;0.90;;
14736;SDS011;7459;53.590;10.062;2022-10-16T01:57:11;3.47;;;1.10;;
14736;SDS011;7459;53.590;10.062;2022-10-16T01:59:42;2.63;;;0.70;;
14736;SDS011;7459;53.590;10.062;2022-10-16T02:02:12;4.30;;;1.35;;
14736;SDS011;7459;53.590;10.062;2022-10-16T02:04:43;4.23;;;0.77;;
14736;SDS011;7459;53.590;10.062;2022-10-16T02:07:12;5.63;;;0.90;;
14736;SDS011;7459;53.590;10.062;2022-10-16T02:09:39;5.20;;;1.05;;
14736;SDS011;7459;53.590;10.062;2022-10-16T02:12:27;3.90;;;0.77;;
14736;SDS011;7459;53.590;10.062;2022-10-16T02:14:57;6.32;;;0.90;;
14736;SDS011;7459;53.590;10.062;2022-10-16T02:17:22;6.00;;;0.90;;
14736;SDS011;7459;53.590;10.062;2022-10-16T02:19:49;4.53;;;0.77;;
14736;SDS011;7459;53.590;10.062;2022-10-16T02:22:27;5.05;;;0.93;;
14736;SDS011;7459;53.590;10.062;2022-10-16T02:24:57;5.75;;;1.15;;
14736;SDS011;7459;53.590;10.062;2022-10-16T02:30:11;4.70;;;0.70;;
14736;SDS011;7459;53.590;10.062;2022-10-16T02:32:47;4.50;;;0.88;;
14736;SDS011;7459;53.590;10.062;2022-10-16T02:35:17;3.53;;;0.85;;
14736;SDS011;7459;53.590;10.062;2022-10-16T02:37:46;5.60;;;1.00;;
14736;SDS011;7459;53.590;10.062;2022-10-16T02:40:13;5.50;;;1.10;;
14736;SDS011;7459;53.590;10.062;2022-10-16T02:42:40;3.28;;;0.88;;
14736;SDS011;7459;53.590;10.062;2022-10-16T02:45:07;3.90;;;0.90;;
14736;SDS011;7459;53.590;10.062;2022-10-16T02:47:35;5.07;;;0.98;;
14736;SDS011;7459;53.590;10.062;2022-10-16T02:50:01;5.43;;;1.53;;
14736;SDS011;7459;53.590;10.062;2022-10-16T02:52:27;3.83;;;0.88;;
14736;SDS011;7459;53.590;10.062;2022-10-16T02:54:52;2.70;;;0.83;;
14736;SDS011;7459;53.590;10.062;2022-10-16T02:57:18;3.93;;;0.60;;
14736;SDS011;7459;53.590;10.062;2022-10-16T02:59:44;5.55;;;0.73;;
14736;SDS011;7459;53.590;10.062;2022-10-16T03:02:10;3.87;;;0.67;;
14736;SDS011;7459;53.590;10.062;2022-10-16T03:04:36;4.63;;;0.70;;
14736;SDS011;7459;53.590;10.062;2022-10-16T03:07:02;7.18;;;0.70;;
14736;SDS011;7459;53.590;10.062;2022-10-16T03:09:28;4.55;;;0.50;;
14736;SDS011;7459;53.590;10.062;2022-10-16T03:11:54;3.67;;;1.00;;
14736;SDS011;7459;53.590;10.062;2022-10-16T03:14:20;5.32;;;0.60;;
14736;SDS011;7459;53.590;10.062;2022-10-16T03:16:45;5.17;;;1.23;;
14736;SDS011;7459;53.590;10.062;2022-10-16T03:19:11;4.30;;;0.73;;
14736;SDS011;7459;53.590;10.062;2022-10-16T03:21:37;4.43;;;0.80;;
14736;SDS011;7459;53.590;10.062;2022-10-16T03:24:03;8.38;;;0.82;;
14736;SDS011;7459;53.590;10.062;2022-10-16T03:26:29;3.65;;;1.02;;
14736;SDS011;7459;53.590;10.062;2022-10-16T03:28:54;4.10;;;0.67;;
14736;SDS011;7459;53.590;10.062;2022-10-16T03:31:20;5.30;;;1.05;;
14736;SDS011;7459;53.590;10.062;2022-10-16T03:33:46;3.00;;;0.70;;
14736;SDS011;7459;53.590;10.062;2022-10-16T03:36:11;6.18;;;0.68;;
14736;SDS011;7459;53.590;10.062;2022-10-16T03:38:37;4.13;;;0.67;;
14736;SDS011;7459;53.590;10.062;2022-10-16T03:41:03;5.55;;;1.00;;
14736;SDS011;7459;53.590;10.062;2022-10-16T03:43:29;5.72;;;1.00;;
14736;SDS011;7459;53.590;10.062;2022-10-16T03:45:54;8.50;;;1.13;;
14736;SDS011;7459;53.590;10.062;2022-10-16T03:48:20;2.20;;;0.70;;
14736;SDS011;7459;53.590;10.062;2022-10-16T03:50:46;3.97;;;0.53;;
14736;SDS011;7459;53.590;10.062;2022-10-16T03:53:13;2.78;;;0.50;;
14736;SDS011;7459;53.590;10.062;2022-10-16T03:55:41;3.30;;;0.63;;
14736;SDS011;7459;53.590;10.062;2022-10-16T03:58:07;2.93;;;0.63;;
14736;SDS011;7459;53.590;10.062;2022-10-16T04:00:33;3.38;;;0.68;;
14736;SDS011;7459;53.590;10.062;2022-10-16T04:02:59;5.35;;;0.60;;
14736;SDS011;7459;53.590;10.062;2022-10-16T04:05:25;4.32;;;0.60;;
14736;SDS011;7459;53.590;10.062;2022-10-16T04:07:51;3.90;;;0.87;;
14736;SDS011;7459;53.590;10.062;2022-10-16T04:10:17;3.05;;;0.60;;
14736;SDS011;7459;53.590;10.062;2022-10-16T04:12:43;3.72;;;0.60;;
14736;SDS011;7459;53.590;10.062;2022-10-16T04:15:09;3.90;;;0.83;;
14736;SDS011;7459;53.590;10.062;2022-10-16T04:17:35;3.92;;;1.20;;
14736;SDS011;7459;53.590;10.062;2022-10-16T04:20:01;2.33;;;0.70;;
14736;SDS011;7459;53.590;10.062;2022-10-16T04:22:27;3.08;;;0.60;;
14736;SDS011;7459;53.590;10.062;2022-10-16T04:24:53;4.78;;;1.15;;
14736;SDS011;7459;53.590;10.062;2022-10-16T04:27:19;2.97;;;0.80;;
14736;SDS011;7459;53.590;10.062;2022-10-16T04:29:44;4.50;;;1.27;;
14736;SDS011;7459;53.590;10.062;2022-10-16T04:32:10;3.67;;;0.90;;
14736;SDS011;7459;53.590;10.062;2022-10-16T04:34:36;4.20;;;0.80;;
14736;SDS011;7459;53.590;10.062;2022-10-16T04:37:04;3.67;;;0.90;;
14736;SDS011;7459;53.590;10.062;2022-10-16T04:39:30;3.97;;;1.17;;
14736;SDS011;7459;53.590;10.062;2022-10-16T04:41:56;2.70;;;1.00;;
14736;SDS011;7459;53.590;10.062;2022-10-16T04:44:21;4.53;;;0.50;;
14736;SDS011;7459;53.590;10.062;2022-10-16T04:46:47;5.55;;;0.80;;
14736;SDS011;7459;53.590;10.062;2022-10-16T04:49:15;3.67;;;0.70;;
14736;SDS011;7459;53.590;10.062;2022-10-16T04:51:41;4.53;;;0.77;;
14736;SDS011;7459;53.590;10.062;2022-10-16T04:54:06;3.25;;;1.13;;
14736;SDS011;7459;53.590;10.062;2022-10-16T04:56:33;3.60;;;0.60;;
14736;SDS011;7459;53.590;10.062;2022-10-16T04:59:05;6.57;;;0.85;;
14736;SDS011;7459;53.590;10.062;2022-10-16T05:01:31;3.47;;;1.00;;
14736;SDS011;7459;53.590;10.062;2022-10-16T05:03:56;5.85;;;1.20;;
14736;SDS011;7459;53.590;10.062;2022-10-16T05:06:22;4.43;;;1.00;;
14736;SDS011;7459;53.590;10.062;2022-10-16T05:08:48;4.68;;;1.00;;
14736;SDS011;7459;53.590;10.062;2022-10-16T05:11:13;5.47;;;0.93;;
14736;SDS011;7459;53.590;10.062;2022-10-16T05:13:39;2.88;;;0.80;;
14736;SDS011;7459;53.590;10.062;2022-10-16T05:16:05;4.20;;;0.87;;
14736;SDS011;7459;53.590;10.062;2022-10-16T05:18:31;4.18;;;1.13;;
14736;SDS011;7459;53.590;10.062;2022-10-16T05:20:56;5.43;;;1.27;;
14736;SDS011;7459;53.590;10.062;2022-10-16T05:23:22;5.75;;;1.10;;
14736;SDS011;7459;53.590;10.062;2022-10-16T05:25:55;3.33;;;1.00;;
14736;SDS011;7459;53.590;10.062;2022-10-16T05:28:23;3.85;;;1.20;;
14736;SDS011;7459;53.590;10.062;2022-10-16T05:30:50;4.55;;;1.30;;
14736;SDS011;7459;53.590;10.062;2022-10-16T05:33:16;6.25;;;1.52;;
14736;SDS011;7459;53.590;10.062;2022-10-16T05:35:41;6.67;;;1.40;;
14736;SDS011;7459;53.590;10.062;2022-10-16T05:38:08;4.57;;;1.20;;
14736;SDS011;7459;53.590;10.062;2022-10-16T05:40:34;4.30;;;1.20;;
14736;SDS011;7459;53.590;10.062;2022-10-16T05:43:00;5.78;;;1.77;;
14736;SDS011;7459;53.590;10.062;2022-10-16T05:45:25;3.88;;;1.45;;
14736;SDS011;7459;53.590;10.062;2022-10-16T05:47:51;3.80;;;1.43;;
14736;SDS011;7459;53.590;10.062;2022-10-16T05:50:17;5.70;;;1.27;;
14736;SDS011;7459;53.590;10.062;2022-10-16T05:52:43;5.87;;;1.27;;
14736;SDS011;7459;53.590;10.062;2022-10-16T05:55:08;5.25;;;1.10;;
14736;SDS011;7459;53.590;10.062;2022-10-16T05:57:34;5.67;;;1.23;;
14736;SDS011;7459;53.590;10.062;2022-10-16T06:00:00;3.80;;;1.45;;
14736;SDS011;7459;53.590;10.062;2022-10-16T06:02:25;4.87;;;1.13;;
14736;SDS011;7459;53.590;10.062;2022-10-16T06:04:51;6.63;;;1.13;;
14736;SDS011;7459;53.590;10.062;2022-10-16T06:07:20;5.60;;;1.05;;
14736;SDS011;7459;53.590;10.062;2022-10-16T06:09:48;4.37;;;0.90;;
14736;SDS011;7459;53.590;10.062;2022-10-16T06:12:14;7.38;;;1.25;;
14736;SDS011;7459;53.590;10.062;2022-10-16T06:14:41;3.45;;;1.08;;
14736;SDS011;7459;53.590;10.062;2022-10-16T06:17:06;7.77;;;1.00;;
14736;SDS011;7459;53.590;10.062;2022-10-16T06:19:32;7.83;;;1.33;;
14736;SDS011;7459;53.590;10.062;2022-10-16T06:21:58;5.18;;;1.08;;
14736;SDS011;7459;53.590;10.062;2022-10-16T06:24:24;5.07;;;0.70;;
14736;SDS011;7459;53.590;10.062;2022-10-16T06:26:50;5.10;;;0.82;;
14736;SDS011;7459;53.590;10.062;2022-10-16T06:29:19;5.05;;;0.98;;
14736;SDS011;7459;53.590;10.062;2022-10-16T06:31:44;3.47;;;0.90;;
14736;SDS011;7459;53.590;10.062;2022-10-16T06:34:10;3.37;;;1.00;;
14736;SDS011;7459;53.590;10.062;2022-10-16T06:36:37;5.13;;;0.98;;
14736;SDS011;7459;53.590;10.062;2022-10-16T06:39:04;6.35;;;0.73;;
14736;SDS011;7459;53.590;10.062;2022-10-16T06:41:32;3.97;;;0.90;;
14736;SDS011;7459;53.590;10.062;2022-10-16T06:43:58;3.70;;;1.13;;
14736;SDS011;7459;53.590;10.062;2022-10-16T06:46:24;7.10;;;1.63;;
14736;SDS011;7459;53.590;10.062;2022-10-16T06:48:51;4.07;;;1.10;;
14736;SDS011;7459;53.590;10.062;2022-10-16T06:51:19;5.20;;;0.97;;
14736;SDS011;7459;53.590;10.062;2022-10-16T06:53:48;6.78;;;1.05;;
14736;SDS011;7459;53.590;10.062;2022-10-16T06:56:17;6.60;;;1.30;;
14736;SDS011;7459;53.590;10.062;2022-10-16T06:58:49;4.15;;;1.00;;
14736;SDS011;7459;53.590;10.062;2022-10-16T07:01:16;5.35;;;1.40;;
14736;SDS011;7459;53.590;10.062;2022-10-16T07:03:45;3.30;;;0.83;;
14736;SDS011;7459;53.590;10.062;2022-10-16T07:06:13;5.15;;;1.17;;
14736;SDS011;7459;53.590;10.062;2022-10-16T07:08:42;4.65;;;1.00;;
14736;SDS011;7459;53.590;10.062;2022-10-16T07:11:10;3.83;;;1.00;;
14736;SDS011;7459;53.590;10.062;2022-10-16T07:13:40;3.55;;;1.10;;
14736;SDS011;7459;53.590;10.062;2022-10-16T07:16:09;6.40;;;1.20;;
14736;SDS011;7459;53.590;10.062;2022-10-16T07:18:43;5.10;;;1.20;;
14736;SDS011;7459;53.590;10.062;2022-10-16T07:21:18;5.20;;;1.40;;
14736;SDS011;7459;53.590;10.062;2022-10-16T07:23:45;6.57;;;1.70;;
14736;SDS011;7459;53.590;10.062;2022-10-16T07:26:16;5.90;;;1.42;;
14736;SDS011;7459;53.590;10.062;2022-10-16T07:28:42;5.30;;;1.30;;
14736;SDS011;7459;53.590;10.062;2022-10-16T07:31:10;5.57;;;1.30;;
14736;SDS011;7459;53.590;10.062;2022-10-16T07:33:38;5.00;;;1.58;;
14736;SDS011;7459;53.590;10.062;2022-10-16T07:36:08;4.93;;;1.20;;
14736;SDS011;7459;53.590;10.062;2022-10-16T07:38:33;7.10;;;1.60;;
14736;SDS011;7459;53.590;10.062;2022-10-16T07:41:00;3.90;;;1.35;;
14736;SDS011;7459;53.590;10.062;2022-10-16T07:43:31;6.20;;;1.43;;
14736;SDS011;7459;53.590;10.062;2022-10-16T07:45:58;4.28;;;1.23;;
14736;SDS011;7459;53.590;10.062;2022-10-16T07:48:26;6.15;;;1.50;;
14736;SDS011;7459;53.590;10.062;2022-10-16T07:50:58;6.10;;;1.40;;
14736;SDS011;7459;53.590;10.062;2022-10-16T07:53:29;4.53;;;1.50;;
14736;SDS011;7459;53.590;10.062;2022-10-16T07:56:01;7.47;;;1.30;;
14736;SDS011;7459;53.590;10.062;2022-10-16T07:58:32;4.28;;;1.42;;
14736;SDS011;7459;53.590;10.062;2022-10-16T08:01:09;3.72;;;1.30;;
14736;SDS011;7459;53.590;10.062;2022-10-16T08:03:38;5.75;;;1.33;;
14736;SDS011;7459;53.590;10.062;2022-10-16T08:06:06;4.20;;;1.10;;
14736;SDS011;7459;53.590;10.062;2022-10-16T08:08:31;7.15;;;1.98;;
14736;SDS011;7459;53.590;10.062;2022-10-16T08:10:57;5.37;;;1.30;;
14736;SDS011;7459;53.590;10.062;2022-10-16T08:13:23;4.35;;;1.45;;
14736;SDS011;7459;53.590;10.062;2022-10-16T08:15:48;6.67;;;1.60;;
14736;SDS011;7459;53.590;10.062;2022-10-16T08:18:15;5.75;;;1.63;;
14736;SDS011;7459;53.590;10.062;2022-10-16T08:20:41;7.40;;;1.55;;
14736;SDS011;7459;53.590;10.062;2022-10-16T08:23:09;6.80;;;1.52;;
14736;SDS011;7459;53.590;10.062;2022-10-16T08:25:36;6.00;;;1.47;;
14736;SDS011;7459;53.590;10.062;2022-10-16T08:28:06;7.07;;;1.27;;
14736;SDS011;7459;53.590;10.062;2022-10-16T08:30:33;4.75;;;1.40;;
14736;SDS011;7459;53.590;10.062;2022-10-16T08:32:59;3.67;;;1.60;;
14736;SDS011;7459;53.590;10.062;2022-10-16T08:35:26;5.20;;;1.08;;
14736;SDS011;7459;53.590;10.062;2022-10-16T08:37:51;4.55;;;1.52;;
14736;SDS011;7459;53.590;10.062;2022-10-16T08:40:18;4.80;;;1.20;;
14736;SDS011;7459;53.590;10.062;2022-10-16T08:49:02;6.95;;;1.52;;
14736;SDS011;7459;53.590;10.062;2022-10-16T08:54:04;5.90;;;1.40;;
14736;SDS011;7459;53.590;10.062;2022-10-16T08:57:00;7.20;;;2.13;;
14736;SDS011;7459;53.590;10.062;2022-10-16T08:59:34;4.95;;;1.60;;
14736;SDS011;7459;53.590;10.062;2022-10-16T09:02:00;4.23;;;1.83;;
14736;SDS011;7459;53.590;10.062;2022-10-16T09:07:51;5.55;;;1.05;;
14736;SDS011;7459;53.590;10.062;2022-10-16T09:13:31;4.93;;;1.20;;
14736;SDS011;7459;53.590;10.062;2022-10-16T09:21:46;3.83;;;1.00;;
14736;SDS011;7459;53.590;10.062;2022-10-16T09:24:17;6.63;;;0.98;;
14736;SDS011;7459;53.590;10.062;2022-10-16T09:26:45;4.10;;;0.95;;
14736;SDS011;7459;53.590;10.062;2022-10-16T09:29:12;2.87;;;0.73;;
14736;SDS011;7459;53.590;10.062;2022-10-16T09:31:39;4.30;;;0.75;;
14736;SDS011;7459;53.590;10.062;2022-10-16T09:34:08;4.05;;;0.90;;
14736;SDS011;7459;53.590;10.062;2022-10-16T09:37:00;6.38;;;0.90;;
14736;SDS011;7459;53.590;10.062;2022-10-16T09:39:28;4.28;;;1.02;;
14736;SDS011;7459;53.590;10.062;2022-10-16T09:41:54;3.73;;;0.80;;
14736;SDS011;7459;53.590;10.062;2022-10-16T09:44:23;3.67;;;0.70;;
14736;SDS011;7459;53.590;10.062;2022-10-16T09:47:02;2.58;;;0.57;;
14736;SDS011;7459;53.590;10.062;2022-10-16T09:49:49;4.30;;;0.80;;
14736;SDS011;7459;53.590;10.062;2022-10-16T09:52:22;4.25;;;0.80;;
14736;SDS011;7459;53.590;10.062;2022-10-16T09:54:49;5.65;;;1.10;;
14736;SDS011;7459;53.590;10.062;2022-10-16T09:57:20;5.13;;;1.00;;
14736;SDS011;7459;53.590;10.062;2022-10-16T09:59:48;4.90;;;1.38;;
14736;SDS011;7459;53.590;10.062;2022-10-16T10:02:20;4.30;;;0.90;;
14736;SDS011;7459;53.590;10.062;2022-10-16T10:04:55;4.43;;;0.80;;
14736;SDS011;7459;53.590;10.062;2022-10-16T10:07:25;5.35;;;0.60;;
14736;SDS011;7459;53.590;10.062;2022-10-16T10:09:53;4.38;;;0.93;;
14736;SDS011;7459;53.590;10.062;2022-10-16T10:12:25;3.90;;;1.00;;
14736;SDS011;7459;53.590;10.062;2022-10-16T10:14:58;4.27;;;0.77;;
14736;SDS011;7459;53.590;10.062;2022-10-16T10:17:30;6.10;;;0.80;;
14736;SDS011;7459;53.590;10.062;2022-10-16T10:20:15;6.10;;;0.98;;
14736;SDS011;7459;53.590;10.062;2022-10-16T10:22:49;4.15;;;0.90;;
14736;SDS011;7459;53.590;10.062;2022-10-16T10:25:24;4.93;;;0.70;;
14736;SDS011;7459;53.590;10.062;2022-10-16T10:28:14;6.07;;;1.17;;
14736;SDS011;7459;53.590;10.062;2022-10-16T10:31:21;6.72;;;0.98;;
14736;SDS011;7459;53.590;10.062;2022-10-16T10:34:11;4.90;;;1.02;;
14736;SDS011;7459;53.590;10.062;2022-10-16T10:43:10;3.35;;;0.60;;
14736;SDS011;7459;53.590;10.062;2022-10-16T10:46:00;7.35;;;0.75;;
14736;SDS011;7459;53.590;10.062;2022-10-16T10:48:43;3.42;;;0.95;;
14736;SDS011;7459;53.590;10.062;2022-10-16T10:54:50;3.47;;;0.47;;
14736;SDS011;7459;53.590;10.062;2022-10-16T11:06:22;4.88;;;0.40;;
14736;SDS011;7459;53.590;10.062;2022-10-16T11:09:02;4.60;;;0.43;;
14736;SDS011;7459;53.590;10.062;2022-10-16T11:12:12;4.85;;;0.40;;
14736;SDS011;7459;53.590;10.062;2022-10-16T11:15:13;6.93;;;0.65;;
14736;SDS011;7459;53.590;10.062;2022-10-16T11:20:18;2.95;;;0.90;;
14736;SDS011;7459;53.590;10.062;2022-10-16T11:22:59;3.30;;;0.83;;
14736;SDS011;7459;53.590;10.062;2022-10-16T11:26:24;7.70;;;0.65;;
14736;SDS011;7459;53.590;10.062;2022-10-16T11:28:55;5.97;;;0.50;;
14736;SDS011;7459;53.590;10.062;2022-10-16T11:37:14;5.00;;;0.60;;
14736;SDS011;7459;53.590;10.062;2022-10-16T11:39:45;4.65;;;0.93;;
14736;SDS011;7459;53.590;10.062;2022-10-16T11:42:19;2.90;;;0.63;;
14736;SDS011;7459;53.590;10.062;2022-10-16T11:44:55;3.70;;;0.60;;
14736;SDS011;7459;53.590;10.062;2022-10-16T11:47:43;3.28;;;0.22;;
14736;SDS011;7459;53.590;10.062;2022-10-16T11:50:17;3.53;;;0.40;;
14736;SDS011;7459;53.590;10.062;2022-10-16T11:56:20;3.35;;;0.60;;
14736;SDS011;7459;53.590;10.062;2022-10-16T12:04:22;5.90;;;0.60;;
14736;SDS011;7459;53.590;10.062;2022-10-16T12:09:31;4.95;;;0.55;;
14736;SDS011;7459;53.590;10.062;2022-10-16T12:12:00;5.65;;;0.60;;
14736;SDS011;7459;53.590;10.062;2022-10-16T12:17:02;7.20;;;0.93;;
14736;SDS011;7459;53.590;10.062;2022-10-16T12:19:58;5.03;;;0.55;;
14736;SDS011;7459;53.590;10.062;2022-10-16T12:25:26;2.63;;;0.63;;
14736;SDS011;7459;53.590;10.062;2022-10-16T12:28:18;7.38;;;0.35;;
14736;SDS011;7459;53.590;10.062;2022-10-16T12:31:01;4.03;;;0.30;;
14736;SDS011;7459;53.590;10.062;2022-10-16T12:33:33;6.93;;;0.60;;
14736;SDS011;7459;53.590;10.062;2022-10-16T12:36:03;4.40;;;0.73;;
14736;SDS011;7459;53.590;10.062;2022-10-16T12:38:48;3.77;;;0.37;;
14736;SDS011;7459;53.590;10.062;2022-10-16T12:43:57;3.13;;;0.28;;
14736;SDS011;7459;53.590;10.062;2022-10-16T12:46:37;4.95;;;0.43;;
14736;SDS011;7459;53.590;10.062;2022-10-16T12:49:19;3.72;;;0.70;;
14736;SDS011;7459;53.590;10.062;2022-10-16T12:52:00;4.93;;;0.50;;
14736;SDS011;7459;53.590;10.062;2022-10-16T12:54:37;5.07;;;0.60;;
14736;SDS011;7459;53.590;10.062;2022-10-16T12:57:09;4.50;;;0.47;;
14736;SDS011;7459;53.590;10.062;2022-10-16T13:00:18;4.43;;;0.40;;
14736;SDS011;7459;53.590;10.062;2022-10-16T13:15:30;3.58;;;0.50;;
14736;SDS011;7459;53.590;10.062;2022-10-16T13:24:48;4.05;;;0.63;;
14736;SDS011;7459;53.590;10.062;2022-10-16T13:30:26;4.22;;;0.98;;
14736;SDS011;7459;53.590;10.062;2022-10-16T13:32:59;5.60;;;0.60;;
14736;SDS011;7459;53.590;10.062;2022-10-16T13:35:56;5.85;;;0.88;;
14736;SDS011;7459;53.590;10.062;2022-10-16T13:38:24;4.13;;;0.35;;
14736;SDS011;7459;53.590;10.062;2022-10-16T13:40:56;3.92;;;0.43;;
14736;SDS011;7459;53.590;10.062;2022-10-16T13:43:41;3.90;;;0.55;;
14736;SDS011;7459;53.590;10.062;2022-10-16T13:46:23;5.53;;;0.20;;
14736;SDS011;7459;53.590;10.062;2022-10-16T13:48:57;5.40;;;0.30;;
14736;SDS011;7459;53.590;10.062;2022-10-16T13:51:28;4.55;;;0.40;;
14736;SDS011;7459;53.590;10.062;2022-10-16T13:53:56;2.67;;;0.30;;
14736;SDS011;7459;53.590;10.062;2022-10-16T13:56:22;3.85;;;0.43;;
14736;SDS011;7459;53.590;10.062;2022-10-16T13:59:01;4.47;;;0.33;;
14736;SDS011;7459;53.590;10.062;2022-10-16T14:01:32;2.95;;;0.52;;
14736;SDS011;7459;53.590;10.062;2022-10-16T14:04:09;5.55;;;0.65;;
14736;SDS011;7459;53.590;10.062;2022-10-16T14:06:42;5.20;;;0.50;;
14736;SDS011;7459;53.590;10.062;2022-10-16T14:09:24;2.17;;;0.50;;
14736;SDS011;7459;53.590;10.062;2022-10-16T14:11:54;4.27;;;0.30;;
14736;SDS011;7459;53.590;10.062;2022-10-16T14:14:29;4.25;;;0.43;;
14736;SDS011;7459;53.590;10.062;2022-10-16T14:17:05;5.38;;;0.30;;
14736;SDS011;7459;53.590;10.062;2022-10-16T14:19:31;2.55;;;0.30;;
14736;SDS011;7459;53.590;10.062;2022-10-16T14:21:57;4.20;;;0.40;;
14736;SDS011;7459;53.590;10.062;2022-10-16T14:24:27;3.67;;;0.53;;
14736;SDS011;7459;53.590;10.062;2022-10-16T14:26:57;3.10;;;0.50;;
14736;SDS011;7459;53.590;10.062;2022-10-16T14:29:24;2.85;;;0.50;;
14736;SDS011;7459;53.590;10.062;2022-10-16T14:31:56;3.70;;;0.60;;
14736;SDS011;7459;53.590;10.062;2022-10-16T14:34:31;6.47;;;1.05;;
14736;SDS011;7459;53.590;10.062;2022-10-16T14:37:00;7.40;;;0.80;;
14736;SDS011;7459;53.590;10.062;2022-10-16T14:39:38;3.65;;;0.55;;
14736;SDS011;7459;53.590;10.062;2022-10-16T14:42:11;6.82;;;0.60;;
14736;SDS011;7459;53.590;10.062;2022-10-16T14:44:42;6.78;;;0.43;;
14736;SDS011;7459;53.590;10.062;2022-10-16T14:47:09;5.00;;;0.40;;
14736;SDS011;7459;53.590;10.062;2022-10-16T14:49:40;5.30;;;0.83;;
14736;SDS011;7459;53.590;10.062;2022-10-16T14:52:08;4.38;;;0.35;;
14736;SDS011;7459;53.590;10.062;2022-10-16T14:54:36;4.38;;;0.50;;
14736;SDS011;7459;53.590;10.062;2022-10-16T14:57:02;3.72;;;0.40;;
14736;SDS011;7459;53.590;10.062;2022-10-16T14:59:30;4.77;;;0.60;;
14736;SDS011;7459;53.590;10.062;2022-10-16T15:02:18;3.92;;;0.32;;
14736;SDS011;7459;53.590;10.062;2022-10-16T15:04:45;5.93;;;0.40;;
14736;SDS011;7459;53.590;10.062;2022-10-16T15:07:11;8.37;;;0.77;;
14736;SDS011;7459;53.590;10.062;2022-10-16T15:09:36;3.05;;;0.30;;
14736;SDS011;7459;53.590;10.062;2022-10-16T15:12:02;6.67;;;0.77;;
14736;SDS011;7459;53.590;10.062;2022-10-16T15:14:28;6.38;;;0.50;;
14736;SDS011;7459;53.590;10.062;2022-10-16T15:16:53;6.60;;;0.30;;
14736;SDS011;7459;53.590;10.062;2022-10-16T15:19:19;3.33;;;0.30;;
14736;SDS011;7459;53.590;10.062;2022-10-16T15:21:45;5.93;;;1.47;;
14736;SDS011;7459;53.590;10.062;2022-10-16T15:24:11;4.80;;;1.33;;
14736;SDS011;7459;53.590;10.062;2022-10-16T15:26:38;9.32;;;1.45;;
14736;SDS011;7459;53.590;10.062;2022-10-16T15:29:04;4.80;;;0.30;;
14736;SDS011;7459;53.590;10.062;2022-10-16T15:31:30;7.67;;;0.80;;
14736;SDS011;7459;53.590;10.062;2022-10-16T15:33:56;5.18;;;1.23;;
14736;SDS011;7459;53.590;10.062;2022-10-16T15:36:30;4.50;;;0.30;;
14736;SDS011;7459;53.590;10.062;2022-10-16T15:39:01;5.78;;;0.60;;
14736;SDS011;7459;53.590;10.062;2022-10-16T15:41:35;7.30;;;1.13;;
14736;SDS011;7459;53.590;10.062;2022-10-16T15:44:01;4.03;;;0.35;;
14736;SDS011;7459;53.590;10.062;2022-10-16T15:46:27;9.10;;;1.13;;
14736;SDS011;7459;53.590;10.062;2022-10-16T15:48:55;6.18;;;0.77;;
14736;SDS011;7459;53.590;10.062;2022-10-16T15:51:23;5.53;;;0.57;;
14736;SDS011;7459;53.590;10.062;2022-10-16T15:53:52;3.92;;;0.85;;
14736;SDS011;7459;53.590;10.062;2022-10-16T15:56:18;9.07;;;0.65;;
14736;SDS011;7459;53.590;10.062;2022-10-16T15:58:44;6.00;;;0.63;;
14736;SDS011;7459;53.590;10.062;2022-10-16T16:01:10;6.22;;;0.88;;
14736;SDS011;7459;53.590;10.062;2022-10-16T16:03:37;12.07;;;4.70;;
14736;SDS011;7459;53.590;10.062;2022-10-16T16:06:06;9.40;;;1.60;;
14736;SDS011;7459;53.590;10.062;2022-10-16T16:08:35;5.67;;;1.17;;
14736;SDS011;7459;53.590;10.062;2022-10-16T16:11:02;5.80;;;0.50;;
14736;SDS011;7459;53.590;10.062;2022-10-16T16:13:31;6.18;;;0.60;;
14736;SDS011;7459;53.590;10.062;2022-10-16T16:15:57;6.60;;;0.90;;
14736;SDS011;7459;53.590;10.062;2022-10-16T16:18:22;5.37;;;0.97;;
14736;SDS011;7459;53.590;10.062;2022-10-16T16:20:49;8.05;;;0.65;;
14736;SDS011;7459;53.590;10.062;2022-10-16T16:23:18;4.90;;;0.68;;
14736;SDS011;7459;53.590;10.062;2022-10-16T16:25:44;5.68;;;0.80;;
14736;SDS011;7459;53.590;10.062;2022-10-16T16:28:10;7.93;;;0.70;;
14736;SDS011;7459;53.590;10.062;2022-10-16T16:30:39;9.52;;;0.60;;
14736;SDS011;7459;53.590;10.062;2022-10-16T16:33:06;4.05;;;0.65;;
14736;SDS011;7459;53.590;10.062;2022-10-16T16:35:31;6.57;;;0.83;;
14736;SDS011;7459;53.590;10.062;2022-10-16T16:37:57;5.47;;;0.75;;
14736;SDS011;7459;53.590;10.062;2022-10-16T16:40:23;3.87;;;0.50;;
14736;SDS011;7459;53.590;10.062;2022-10-16T16:42:48;8.40;;;0.98;;
14736;SDS011;7459;53.590;10.062;2022-10-16T16:45:14;4.63;;;0.85;;
14736;SDS011;7459;53.590;10.062;2022-10-16T16:47:40;3.77;;;1.47;;
14736;SDS011;7459;53.590;10.062;2022-10-16T16:50:06;5.38;;;0.77;;